Time;durP1;ratioP1;P1;durP2;ratioP2;P2;SDS_P1;SDS_P2;PMS_P1;PMS_P2;Temp;Humidity;BMP_temperature;BMP_pressure;BME280_temperature;BME280_humidity;BME280_pressure;Samples;Min_cycle;Max_cycle;Signal;HPM_P1;HPM_P2
2023/11/09 00:02:07;;;;;;;0.57;0.32;;;10.10;99.90;;;;;;4897491;28;90626;-74
2023/11/09 00:04:32;;;;;;;0.70;0.40;;;10.10;99.90;;;;;;4891989;28;88112;-73
2023/11/09 00:06:58;;;;;;;0.77;0.55;;;10.10;99.90;;;;;;4895075;28;89593;-74
2023/11/09 00:09:24;;;;;;;0.93;0.40;;;10.10;99.90;;;;;;4894936;28;87642;-73
2023/11/09 00:11:49;;;;;;;0.40;0.40;;;10.10;99.90;;;;;;4894028;28;87925;-73
2023/11/09 00:14:16;;;;;;;0.60;0.40;;;10.10;99.90;;;;;;4892167;28;92319;-74
2023/11/09 00:16:45;;;;;;;1.80;0.30;;;10.10;99.90;;;;;;4894038;28;91663;-74
2023/11/09 00:19:12;;;;;;;1.40;0.32;;;10.20;99.90;;;;;;4894669;28;87724;-73
2023/11/09 00:21:38;;;;;;;0.68;0.50;;;10.20;99.90;;;;;;4894147;28;90655;-73
2023/11/09 00:24:09;;;;;;;0.50;0.30;;;10.20;99.90;;;;;;4892934;28;87716;-73
2023/11/09 00:26:35;;;;;;;1.05;0.30;;;10.20;99.90;;;;;;4890965;28;90261;-73
2023/11/09 00:29:01;;;;;;;1.58;0.38;;;10.20;99.90;;;;;;4897385;28;87896;-73
2023/11/09 00:31:27;;;;;;;1.15;0.47;;;10.20;99.90;;;;;;4893935;28;87802;-73
2023/11/09 00:33:52;;;;;;;1.17;0.50;;;10.20;99.90;;;;;;4888063;28;91426;-73
2023/11/09 00:36:18;;;;;;;0.73;0.47;;;10.20;99.90;;;;;;4890360;28;88213;-73
2023/11/09 00:38:46;;;;;;;0.50;0.40;;;10.20;99.90;;;;;;4891226;28;88675;-73
2023/11/09 00:41:12;;;;;;;1.13;0.40;;;10.20;99.90;;;;;;4891317;28;88016;-73
2023/11/09 00:43:39;;;;;;;0.70;0.38;;;10.20;99.90;;;;;;4890228;28;92031;-73
2023/11/09 00:46:06;;;;;;;1.20;0.40;;;10.20;99.90;;;;;;4883763;28;92620;-74
2023/11/09 00:48:31;;;;;;;2.00;0.40;;;10.20;99.90;;;;;;4886223;28;87831;-73
2023/11/09 00:50:57;;;;;;;1.08;0.30;;;10.30;99.90;;;;;;4889431;28;87756;-73
2023/11/09 00:53:23;;;;;;;2.20;0.45;;;10.30;99.90;;;;;;4894499;28;91668;-74
2023/11/09 00:55:49;;;;;;;0.50;0.32;;;10.30;99.90;;;;;;4885933;28;92272;-73
2023/11/09 00:58:15;;;;;;;1.00;0.50;;;10.30;99.90;;;;;;4888763;28;87729;-73
2023/11/09 01:00:41;;;;;;;1.23;0.40;;;10.30;99.90;;;;;;4880890;28;88090;-73
2023/11/09 01:03:06;;;;;;;1.58;0.30;;;10.40;99.90;;;;;;4887479;28;92370;-73
2023/11/09 01:05:32;;;;;;;0.40;0.30;;;10.40;99.90;;;;;;4887846;28;91114;-73
2023/11/09 01:07:57;;;;;;;0.73;0.40;;;10.40;99.90;;;;;;4888626;28;88136;-73
2023/11/09 01:10:23;;;;;;;0.40;0.40;;;10.40;99.90;;;;;;4888705;28;88381;-73
2023/11/09 01:12:49;;;;;;;0.40;0.40;;;10.40;99.90;;;;;;4889503;28;91831;-72
2023/11/09 01:15:15;;;;;;;0.77;0.40;;;10.40;99.90;;;;;;4887601;28;91419;-73
2023/11/09 01:18:06;;;;;;;2.67;0.32;;;10.40;99.90;;;;;;4888593;28;87863;-73
2023/11/09 01:20:33;;;;;;;1.73;0.40;;;10.50;99.90;;;;;;4888199;28;87750;-74
2023/11/09 01:22:59;;;;;;;0.98;0.40;;;10.50;99.90;;;;;;4887119;28;91643;-73
2023/11/09 01:25:25;;;;;;;0.95;0.40;;;10.50;99.90;;;;;;4888065;28;91202;-73
2023/11/09 01:27:50;;;;;;;0.90;0.50;;;10.50;99.90;;;;;;4885937;28;88620;-73
2023/11/09 01:30:16;;;;;;;1.05;0.40;;;10.50;99.90;;;;;;4888471;28;88045;-73
2023/11/09 01:32:42;;;;;;;0.52;0.50;;;10.60;99.90;;;;;;4884191;28;91751;-74
2023/11/09 01:35:08;;;;;;;2.05;0.82;;;10.60;99.90;;;;;;4888169;28;91681;-73
2023/11/09 01:37:35;;;;;;;2.55;0.47;;;10.60;99.90;;;;;;4887322;28;88562;-73
2023/11/09 01:40:03;;;;;;;0.65;0.40;;;10.60;99.90;;;;;;4888431;28;87519;-73
2023/11/09 01:42:29;;;;;;;1.52;0.60;;;10.60;99.90;;;;;;4886909;28;88567;-73
2023/11/09 01:44:55;;;;;;;1.73;0.45;;;10.60;99.90;;;;;;4889063;28;91635;-72
2023/11/09 01:47:22;;;;;;;1.45;0.50;;;10.60;99.90;;;;;;4888652;28;87585;-73
2023/11/09 01:49:49;;;;;;;3.20;0.68;;;10.60;99.90;;;;;;4887528;28;89754;-74
2023/11/09 01:52:15;;;;;;;1.77;0.52;;;10.70;99.90;;;;;;4890188;28;92572;-74
2023/11/09 01:54:41;;;;;;;2.35;0.63;;;10.70;99.90;;;;;;4882722;28;92520;-74
2023/11/09 01:57:11;;;;;;;2.83;0.80;;;10.70;99.90;;;;;;4887238;28;87952;-73
2023/11/09 01:59:41;;;;;;;1.83;0.70;;;10.60;99.90;;;;;;4887381;28;87541;-73
2023/11/09 02:02:06;;;;;;;3.58;0.80;;;10.60;99.90;;;;;;4887748;28;94833;-74
2023/11/09 02:04:32;;;;;;;3.67;0.90;;;10.60;99.90;;;;;;4883686;28;91739;-74
2023/11/09 02:06:58;;;;;;;2.80;1.40;;;10.60;99.90;;;;;;4885028;28;87761;-73
2023/11/09 02:09:26;;;;;;;2.80;0.80;;;10.50;99.90;;;;;;4884106;28;89070;-73
2023/11/09 02:11:52;;;;;;;5.78;0.93;;;10.60;99.90;;;;;;4887635;28;88092;-74
2023/11/09 02:14:19;;;;;;;4.20;0.93;;;10.50;99.90;;;;;;4889059;28;87881;-73
2023/11/09 02:16:46;;;;;;;2.40;0.90;;;10.60;99.90;;;;;;4885697;28;89190;-73
2023/11/09 02:19:17;;;;;;;1.02;0.88;;;10.50;99.90;;;;;;4888497;28;91060;-73
2023/11/09 02:21:47;;;;;;;5.15;1.20;;;10.60;99.90;;;;;;4888513;28;88274;-73
2023/11/09 02:24:14;;;;;;;2.28;0.93;;;10.60;99.90;;;;;;4882307;28;90410;-73
2023/11/09 02:26:40;;;;;;;2.45;0.93;;;10.60;99.90;;;;;;4886927;28;87259;-74
2023/11/09 02:29:06;;;;;;;5.72;1.10;;;10.60;99.90;;;;;;4887565;28;90335;-73
2023/11/09 02:31:32;;;;;;;3.10;1.05;;;10.60;99.90;;;;;;4887925;28;88102;-74
2023/11/09 02:33:58;;;;;;;3.40;1.00;;;10.60;99.90;;;;;;4885069;28;91394;-73
2023/11/09 02:36:26;;;;;;;1.60;1.05;;;10.60;99.90;;;;;;4887373;28;88727;-74
2023/11/09 02:38:51;;;;;;;2.50;0.90;;;10.60;99.90;;;;;;4886779;28;90222;-73
2023/11/09 02:41:18;;;;;;;2.72;1.10;;;10.60;99.90;;;;;;4887169;28;91021;-73
2023/11/09 02:43:43;;;;;;;2.33;1.17;;;10.70;99.90;;;;;;4896654;28;88517;-73
2023/11/09 02:46:12;;;;;;;4.47;1.27;;;10.70;99.90;;;;;;4889673;28;87442;-73
2023/11/09 02:48:40;;;;;;;2.08;1.10;;;10.70;99.90;;;;;;4885743;28;90113;-74
2023/11/09 02:51:09;;;;;;;3.33;1.00;;;10.70;99.90;;;;;;4891530;28;92585;-73
2023/11/09 02:53:40;;;;;;;1.30;1.20;;;10.70;99.90;;;;;;4893858;28;88495;-73
2023/11/09 02:56:23;;;;;;;2.50;1.20;;;10.70;99.90;;;;;;4889197;28;87700;-73
2023/11/09 02:58:49;;;;;;;3.70;1.08;;;10.70;99.90;;;;;;4893964;28;90895;-73
2023/11/09 03:01:18;;;;;;;6.28;1.40;;;10.70;99.90;;;;;;4890380;28;88668;-73
2023/11/09 03:04:04;;;;;;;4.32;1.50;;;10.70;99.90;;;;;;4890966;28;91592;-74
2023/11/09 03:06:30;;;;;;;3.75;1.23;;;10.80;99.90;;;;;;4891923;28;88685;-74
2023/11/09 03:08:56;;;;;;;2.55;1.33;;;10.70;99.90;;;;;;4892207;28;88916;-73
2023/11/09 03:11:22;;;;;;;5.40;1.17;;;10.80;99.90;;;;;;4891203;28;88312;-73
2023/11/09 03:13:47;;;;;;;2.17;1.13;;;10.80;99.90;;;;;;4890273;28;88740;-74
2023/11/09 03:16:13;;;;;;;4.20;1.17;;;10.80;99.90;;;;;;4889262;28;88092;-73
2023/11/09 03:18:41;;;;;;;3.33;1.35;;;10.80;99.90;;;;;;4891346;28;87785;-74
2023/11/09 03:21:09;;;;;;;3.30;1.10;;;10.80;99.90;;;;;;4890475;28;88368;-73
2023/11/09 03:23:35;;;;;;;4.80;1.00;;;10.80;99.90;;;;;;4890373;28;91525;-73
2023/11/09 03:26:01;;;;;;;3.42;1.10;;;10.80;99.90;;;;;;4891330;28;87775;-74
2023/11/09 03:28:26;;;;;;;5.60;1.42;;;10.80;99.90;;;;;;4887671;28;87923;-74
2023/11/09 03:30:52;;;;;;;1.75;1.23;;;10.80;99.90;;;;;;4887684;28;89406;-74
2023/11/09 03:33:18;;;;;;;2.75;0.90;;;10.80;99.90;;;;;;4888417;28;89156;-74
2023/11/09 03:35:44;;;;;;;4.15;1.08;;;10.80;99.90;;;;;;4883734;28;87463;-73
2023/11/09 03:38:10;;;;;;;3.20;0.98;;;10.80;99.90;;;;;;4890736;28;87563;-73
2023/11/09 03:40:35;;;;;;;2.30;1.45;;;10.80;99.90;;;;;;4888364;28;91790;-73
2023/11/09 03:43:01;;;;;;;1.98;1.10;;;10.80;99.90;;;;;;4887050;28;91492;-73
2023/11/09 03:45:27;;;;;;;3.97;1.50;;;10.80;99.90;;;;;;4889299;28;88125;-73
2023/11/09 03:47:53;;;;;;;1.65;0.80;;;10.80;99.90;;;;;;4892316;28;87354;-72
2023/11/09 03:50:19;;;;;;;3.50;1.05;;;10.80;99.90;;;;;;4890340;28;92793;-74
2023/11/09 03:52:45;;;;;;;3.50;1.30;;;10.80;99.90;;;;;;4890272;28;92063;-73
2023/11/09 03:55:14;;;;;;;8.23;1.13;;;10.90;99.90;;;;;;4890198;28;89017;-74
2023/11/09 03:57:39;;;;;;;3.65;0.88;;;10.90;99.90;;;;;;4884677;28;90217;-73
2023/11/09 04:00:25;;;;;;;3.50;1.10;;;10.90;99.90;;;;;;4890775;28;92059;-74
2023/11/09 04:03:08;;;;;;;5.05;0.88;;;10.90;99.90;;;;;;4889499;28;91983;-73
2023/11/09 04:05:34;;;;;;;1.67;1.00;;;10.80;99.90;;;;;;4887604;28;87960;-73
2023/11/09 04:08:02;;;;;;;2.65;0.70;;;10.80;99.90;;;;;;4886549;28;91061;-73
2023/11/09 04:10:28;;;;;;;7.03;1.00;;;10.80;99.90;;;;;;4887568;28;92043;-74
2023/11/09 04:12:54;;;;;;;2.53;0.85;;;10.80;99.90;;;;;;4887694;28;91470;-73
2023/11/09 04:15:19;;;;;;;2.10;1.23;;;10.80;99.90;;;;;;4908540;28;88193;-74
2023/11/09 04:17:45;;;;;;;1.00;0.75;;;10.80;99.90;;;;;;4889455;28;91083;-74
2023/11/09 04:20:11;;;;;;;2.60;0.90;;;10.70;99.90;;;;;;4893382;28;92377;-74
2023/11/09 04:22:44;;;;;;;2.47;1.00;;;10.70;99.90;;;;;;4892754;28;89377;-75
2023/11/09 04:25:10;;;;;;;1.77;0.98;;;10.70;99.90;;;;;;4884827;28;87769;-75
2023/11/09 04:27:37;;;;;;;1.50;1.23;;;10.70;99.90;;;;;;4890043;28;89404;-74
2023/11/09 04:30:14;;;;;;;2.88;0.73;;;10.60;99.90;;;;;;4884662;28;91651;-75
2023/11/09 04:32:41;;;;;;;2.63;0.80;;;10.60;99.90;;;;;;4887190;28;87628;-75
2023/11/09 04:35:09;;;;;;;1.20;0.80;;;10.60;99.90;;;;;;4888315;28;87812;-76
2023/11/09 04:37:44;;;;;;;2.47;0.60;;;10.50;99.90;;;;;;4886096;28;90958;-74
2023/11/09 04:40:27;;;;;;;1.05;0.50;;;10.50;99.90;;;;;;4886548;28;92305;-74
2023/11/09 04:42:56;;;;;;;0.77;0.50;;;10.50;99.90;;;;;;4887094;28;88964;-76
2023/11/09 04:45:22;;;;;;;1.52;0.60;;;10.50;99.90;;;;;;4885447;28;89182;-75
2023/11/09 04:47:55;;;;;;;0.40;0.40;;;10.40;99.90;;;;;;4889743;28;88207;-74
2023/11/09 04:50:30;;;;;;;1.70;0.40;;;10.40;99.90;;;;;;4885581;28;91673;-74
2023/11/09 04:56:03;;;;;;;1.75;0.50;;;10.40;99.90;;;;;;4881847;28;87822;-75
2023/11/09 04:59:01;;;;;;;0.80;0.40;;;10.40;99.90;;;;;;4888298;28;91050;-74
2023/11/09 05:07:14;;;;;;;0.50;0.40;;;10.40;99.90;;;;;;4885351;28;88278;-75
2023/11/09 05:09:40;;;;;;;1.95;0.40;;;10.30;99.90;;;;;;4872689;28;90581;-76
2023/11/09 05:12:06;;;;;;;1.35;0.40;;;10.30;99.90;;;;;;4871080;28;92443;-75
2023/11/09 05:14:34;;;;;;;1.38;0.22;;;10.30;99.90;;;;;;4887253;28;89346;-75
2023/11/09 05:16:59;;;;;;;0.30;0.30;;;10.30;99.90;;;;;;4892432;28;88032;-73
2023/11/09 05:19:25;;;;;;;0.40;0.38;;;10.30;99.90;;;;;;4884557;28;91775;-74
2023/11/09 05:21:51;;;;;;;1.33;0.43;;;10.30;99.90;;;;;;4889573;28;89124;-75
2023/11/09 05:24:17;;;;;;;2.05;0.20;;;10.20;99.90;;;;;;4883303;28;91012;-75
2023/11/09 05:26:43;;;;;;;2.13;0.30;;;10.20;99.90;;;;;;4891367;28;88164;-75
2023/11/09 05:29:09;;;;;;;2.83;0.40;;;10.20;99.90;;;;;;4888548;28;88004;-76
2023/11/09 05:31:36;;;;;;;3.78;0.57;;;10.20;99.90;;;;;;4887377;28;88070;-75
2023/11/09 05:34:03;;;;;;;5.97;1.00;;;10.20;99.90;;;;;;4885813;28;88353;-76
2023/11/09 05:36:37;;;;;;;5.78;1.13;;;10.10;99.90;;;;;;4882300;28;88406;-75
2023/11/09 05:39:05;;;;;;;;;;;10.10;99.90;;;;;;4885766;28;90605;-75
2023/11/09 05:41:31;;;;;;;4.63;0.75;;;10.10;99.90;;;;;;4890435;28;89039;-75
2023/11/09 05:43:58;;;;;;;6.63;1.38;;;10.10;99.90;;;;;;4888940;28;87791;-75
2023/11/09 05:46:33;;;;;;;9.05;1.10;;;10.00;99.90;;;;;;4887945;28;88236;-75
2023/11/09 05:48:59;;;;;;;5.80;1.25;;;10.00;99.90;;;;;;4884272;28;90416;-75
2023/11/09 05:51:28;;;;;;;2.45;0.80;;;10.00;99.90;;;;;;4887382;28;88527;-75
2023/11/09 05:53:53;;;;;;;9.23;1.40;;;9.90;99.90;;;;;;4883585;28;89145;-75
2023/11/09 05:56:23;;;;;;;6.82;0.93;;;9.90;99.90;;;;;;4886185;28;87911;-76
2023/11/09 05:58:54;;;;;;;6.82;1.33;;;9.90;99.90;;;;;;4889130;28;88109;-75
2023/11/09 06:01:20;;;;;;;4.93;1.58;;;9.90;99.90;;;;;;4891202;28;92428;-75
2023/11/09 06:03:45;;;;;;;8.93;1.60;;;9.80;99.90;;;;;;4885486;28;92267;-74
2023/11/09 06:06:11;;;;;;;7.00;1.30;;;9.80;99.90;;;;;;4886283;28;88067;-76
2023/11/09 06:08:39;;;;;;;8.35;1.05;;;9.80;99.90;;;;;;4883937;28;90479;-75
2023/11/09 06:11:05;;;;;;;9.38;1.40;;;9.80;99.90;;;;;;4887679;28;92684;-75
2023/11/09 06:13:34;;;;;;;13.23;1.90;;;9.80;99.90;;;;;;4886080;28;90314;-75
2023/11/09 06:15:59;;;;;;;9.98;1.75;;;9.70;99.90;;;;;;4892510;28;87878;-75
2023/11/09 06:18:26;;;;;;;10.70;2.13;;;9.70;99.90;;;;;;4885521;28;91629;-75
2023/11/09 06:20:53;;;;;;;11.52;2.95;;;9.70;99.90;;;;;;4888218;28;88683;-74
2023/11/09 06:23:22;;;;;;;13.45;1.55;;;9.70;99.90;;;;;;4888020;28;88594;-75
2023/11/09 06:25:51;;;;;;;5.35;1.63;;;9.70;99.90;;;;;;4887618;28;89916;-75
2023/11/09 06:28:18;;;;;;;12.40;1.95;;;9.60;99.90;;;;;;4882850;28;90387;-74
2023/11/09 06:30:44;;;;;;;8.30;1.75;;;9.60;99.90;;;;;;4884647;28;95987;-74
2023/11/09 06:33:09;;;;;;;15.38;2.22;;;9.70;99.90;;;;;;4890554;28;91558;-74
2023/11/09 06:35:35;;;;;;;11.32;1.95;;;9.70;99.90;;;;;;4889316;28;87883;-75
2023/11/09 06:38:01;;;;;;;9.50;1.60;;;9.70;99.90;;;;;;4886700;28;88287;-75
2023/11/09 06:40:31;;;;;;;10.93;1.92;;;9.60;99.90;;;;;;4887959;28;92441;-75
2023/11/09 06:42:57;;;;;;;12.13;1.60;;;9.60;99.90;;;;;;4886152;28;91180;-76
2023/11/09 06:45:23;;;;;;;14.77;1.88;;;9.60;99.90;;;;;;4885246;28;87846;-75
2023/11/09 06:47:49;;;;;;;8.93;2.22;;;9.60;99.90;;;;;;4887145;28;90991;-74
2023/11/09 06:50:19;;;;;;;11.13;1.50;;;9.60;99.90;;;;;;4888371;28;89345;-75
2023/11/09 06:52:45;;;;;;;11.93;1.73;;;9.60;99.90;;;;;;4888673;28;89086;-75
2023/11/09 06:55:15;;;;;;;7.32;1.55;;;9.60;99.90;;;;;;4890078;28;87797;-74
2023/11/09 06:57:45;;;;;;;12.98;3.22;;;9.60;99.90;;;;;;4881924;28;90982;-74
2023/11/09 07:00:12;;;;;;;14.73;2.00;;;9.50;99.90;;;;;;4888732;28;91799;-74
2023/11/09 07:02:43;;;;;;;8.23;2.75;;;9.50;99.90;;;;;;4886680;28;93009;-75
2023/11/09 07:05:10;;;;;;;7.28;1.80;;;9.50;99.90;;;;;;4886618;28;88630;-75
2023/11/09 07:07:38;;;;;;;8.75;1.80;;;9.50;99.90;;;;;;4885428;28;87275;-74
2023/11/09 07:10:08;;;;;;;10.45;2.08;;;9.50;99.90;;;;;;4893295;28;87712;-75
2023/11/09 07:12:42;;;;;;;11.38;2.17;;;9.50;99.90;;;;;;4890288;28;89669;-75
2023/11/09 07:15:08;;;;;;;14.18;2.30;;;9.50;99.90;;;;;;4889762;28;88769;-74
2023/11/09 07:17:34;;;;;;;11.23;1.83;;;9.50;99.90;;;;;;4887514;28;91693;-74
2023/11/09 07:20:00;;;;;;;7.30;1.73;;;9.50;99.90;;;;;;4885687;28;90615;-74
2023/11/09 07:22:26;;;;;;;10.52;1.85;;;9.50;99.90;;;;;;4887257;28;91729;-75
2023/11/09 07:25:00;;;;;;;12.45;1.95;;;9.50;99.90;;;;;;4889561;28;87866;-74
2023/11/09 07:27:26;;;;;;;8.75;2.08;;;9.50;99.90;;;;;;4885850;28;91409;-76
2023/11/09 07:29:54;;;;;;;13.80;1.95;;;9.50;99.90;;;;;;4887912;28;91059;-74
2023/11/09 07:32:21;;;;;;;9.65;2.00;;;9.50;99.90;;;;;;4885674;28;90752;-74
2023/11/09 07:34:46;;;;;;;11.95;2.70;;;9.50;99.90;;;;;;4890845;28;87947;-73
2023/11/09 07:37:13;;;;;;;9.88;1.95;;;9.50;99.90;;;;;;4879610;28;90535;-75
2023/11/09 07:39:40;;;;;;;13.07;2.70;;;9.50;99.90;;;;;;4888874;28;89621;-74
2023/11/09 07:42:06;;;;;;;15.95;2.35;;;9.50;99.90;;;;;;4889299;28;88338;-75
2023/11/09 07:44:33;;;;;;;11.00;2.95;;;9.60;99.90;;;;;;4886902;28;87766;-74
2023/11/09 07:46:58;;;;;;;12.25;3.15;;;9.60;99.90;;;;;;4889033;28;90235;-74
2023/11/09 07:49:30;;;;;;;11.10;2.42;;;9.70;99.90;;;;;;4886739;28;91696;-74
2023/11/09 07:52:00;;;;;;;16.70;3.47;;;9.70;99.90;;;;;;4888064;28;91499;-74
2023/11/09 07:54:27;;;;;;;10.05;1.92;;;9.70;99.90;;;;;;4893197;28;87962;-74
2023/11/09 07:56:55;;;;;;;11.63;2.38;;;9.80;99.90;;;;;;4886779;28;90848;-74
2023/11/09 07:59:23;;;;;;;10.60;2.20;;;9.80;99.90;;;;;;4891803;28;91166;-74
2023/11/09 08:01:49;;;;;;;11.70;2.05;;;9.80;99.90;;;;;;4892873;28;91798;-74
2023/11/09 08:04:15;;;;;;;10.50;1.77;;;9.80;99.90;;;;;;4886044;28;88385;-74
2023/11/09 08:06:42;;;;;;;18.85;1.98;;;9.90;99.90;;;;;;4885777;28;88278;-74
2023/11/09 08:09:15;;;;;;;10.20;1.73;;;9.90;99.90;;;;;;4889407;28;88372;-75
2023/11/09 08:11:44;;;;;;;11.93;2.20;;;9.90;99.90;;;;;;4888341;28;88232;-75
2023/11/09 08:14:10;;;;;;;12.93;2.20;;;10.00;99.90;;;;;;4888151;28;87930;-74
2023/11/09 08:16:36;;;;;;;6.93;1.77;;;10.10;99.90;;;;;;4889189;28;89326;-74
2023/11/09 08:19:03;;;;;;;12.75;2.35;;;10.10;99.90;;;;;;4890433;28;88635;-75
2023/11/09 08:21:39;;;;;;;13.75;1.52;;;10.10;99.90;;;;;;4886478;28;88306;-75
2023/11/09 08:24:06;;;;;;;9.15;1.80;;;10.20;99.90;;;;;;4890072;28;87781;-74
2023/11/09 08:26:32;;;;;;;10.43;2.70;;;10.20;99.90;;;;;;4889589;28;88589;-75
2023/11/09 08:29:00;;;;;;;9.75;1.90;;;10.20;99.90;;;;;;4883750;28;89657;-76
2023/11/09 08:31:25;;;;;;;10.20;2.58;;;10.20;99.90;;;;;;4879371;28;92656;-75
2023/11/09 08:33:54;;;;;;;8.13;2.17;;;10.20;99.90;;;;;;4880888;28;87700;-74
2023/11/09 08:36:20;;;;;;;9.68;2.00;;;10.30;99.90;;;;;;4883625;28;87812;-74
2023/11/09 08:38:46;;;;;;;9.35;2.10;;;10.20;99.90;;;;;;4882111;28;91503;-75
2023/11/09 08:41:11;;;;;;;14.43;1.73;;;10.30;99.90;;;;;;4875790;28;91138;-75
2023/11/09 08:43:37;;;;;;;11.18;2.72;;;10.30;99.90;;;;;;4880398;28;88457;-75
2023/11/09 08:46:03;;;;;;;11.95;2.22;;;10.30;99.90;;;;;;4878985;28;89275;-74
2023/11/09 08:48:30;;;;;;;10.90;2.33;;;10.30;99.90;;;;;;4882488;28;88188;-75
2023/11/09 08:51:01;;;;;;;9.32;2.13;;;10.30;99.90;;;;;;4878162;28;88385;-74
2023/11/09 08:53:31;;;;;;;20.25;3.60;;;10.30;99.90;;;;;;4881223;28;89360;-75
2023/11/09 08:56:00;;;;;;;11.00;2.92;;;10.30;99.90;;;;;;4881043;28;90292;-76
2023/11/09 08:58:48;;;;;;;19.25;2.78;;;10.30;99.90;;;;;;4877648;28;91602;-76
2023/11/09 09:01:18;;;;;;;11.10;3.17;;;10.30;99.90;;;;;;4875245;28;89012;-74
2023/11/09 09:03:50;;;;;;;10.65;2.30;;;10.30;99.90;;;;;;4879751;28;88303;-74
2023/11/09 09:06:18;;;;;;;10.95;2.70;;;10.30;99.90;;;;;;4877954;28;90546;-75
2023/11/09 09:09:04;;;;;;;11.65;2.83;;;10.30;99.90;;;;;;4880840;28;92567;-76
2023/11/09 09:11:31;;;;;;;12.82;2.53;;;10.30;99.90;;;;;;4879868;28;91286;-76
2023/11/09 09:13:57;;;;;;;18.50;3.40;;;10.30;99.90;;;;;;4877841;28;88295;-75
2023/11/09 09:16:24;;;;;;;11.30;3.10;;;10.40;99.90;;;;;;4875887;28;87942;-76
2023/11/09 09:18:49;;;;;;;14.32;3.50;;;10.40;99.90;;;;;;4874918;28;92649;-75
2023/11/09 09:21:15;;;;;;;16.63;3.55;;;10.40;99.90;;;;;;4880401;28;92580;-75
2023/11/09 09:23:41;;;;;;;20.70;3.97;;;10.50;99.90;;;;;;4883118;28;87880;-74
2023/11/09 09:26:07;;;;;;;16.33;3.40;;;10.50;99.90;;;;;;4882097;28;91978;-75
2023/11/09 09:28:34;;;;;;;13.70;3.15;;;10.50;99.90;;;;;;4878654;28;89729;-75
2023/11/09 09:31:03;;;;;;;16.88;3.38;;;10.60;99.90;;;;;;4887804;28;88519;-77
2023/11/09 09:33:30;;;;;;;15.32;3.40;;;10.60;99.90;;;;;;4881552;28;87964;-75
2023/11/09 09:35:57;;;;;;;22.00;3.85;;;10.60;99.90;;;;;;4877656;28;90778;-75
2023/11/09 09:38:24;;;;;;;15.57;3.10;;;10.60;99.90;;;;;;4877603;28;91818;-75
2023/11/09 09:41:15;;;;;;;20.38;3.47;;;10.50;99.90;;;;;;4883879;28;88756;-74
2023/11/09 09:43:42;;;;;;;18.38;3.08;;;10.50;99.90;;;;;;4874390;28;89259;-74
2023/11/09 09:46:08;;;;;;;14.40;2.95;;;10.60;99.90;;;;;;4878588;28;90325;-74
2023/11/09 09:48:35;;;;;;;22.48;3.35;;;10.60;99.90;;;;;;4885487;28;88090;-73
2023/11/09 09:51:06;;;;;;;20.25;3.50;;;10.60;99.90;;;;;;4886613;28;91331;-75
2023/11/09 09:53:32;;;;;;;22.55;3.72;;;10.70;99.90;;;;;;4888478;28;88235;-74
2023/11/09 09:55:58;;;;;;;16.58;3.20;;;10.70;99.90;;;;;;4883285;28;91075;-73
2023/11/09 09:58:24;;;;;;;15.85;2.78;;;10.80;99.90;;;;;;4885773;28;92828;-73
2023/11/09 10:00:58;;;;;;;15.50;3.10;;;10.90;99.90;;;;;;4879798;28;92594;-73
2023/11/09 10:03:25;;;;;;;14.10;2.47;;;10.90;99.90;;;;;;4875095;28;87704;-74
2023/11/09 10:05:51;;;;;;;16.05;4.15;;;11.00;99.90;;;;;;4876932;28;90175;-74
2023/11/09 10:08:17;;;;;;;16.98;2.92;;;11.10;99.90;;;;;;4878076;28;92097;-73
2023/11/09 10:10:49;;;;;;;15.95;2.83;;;11.30;99.90;;;;;;4882848;28;88976;-73
2023/11/09 10:13:16;;;;;;;18.63;3.30;;;11.40;99.90;;;;;;4877157;28;88470;-73
2023/11/09 10:15:46;;;;;;;17.02;2.60;;;11.50;99.90;;;;;;4879549;28;88296;-74
2023/11/09 10:18:12;;;;;;;16.17;2.97;;;11.60;99.90;;;;;;4878935;28;91260;-73
2023/11/09 10:20:59;;;;;;;10.80;2.05;;;11.70;99.90;;;;;;4883994;28;91944;-74
2023/11/09 10:23:26;;;;;;;13.13;3.10;;;11.80;99.90;;;;;;4878886;28;87761;-74
2023/11/09 10:25:52;;;;;;;13.50;2.17;;;11.70;99.90;;;;;;4864058;28;87098;-75
2023/11/09 10:28:20;;;;;;;15.05;2.80;;;11.60;99.90;;;;;;4884645;28;91725;-74
2023/11/09 10:30:46;;;;;;;21.83;3.47;;;11.60;99.90;;;;;;4888635;28;89383;-73
2023/11/09 10:33:16;;;;;;;16.35;4.00;;;11.60;99.90;;;;;;4890596;28;88241;-74
2023/11/09 10:35:42;;;;;;;10.95;2.72;;;11.60;99.90;;;;;;4885797;28;90404;-74
2023/11/09 10:38:12;;;;;;;13.98;2.70;;;11.70;99.90;;;;;;4887559;28;88766;-74
2023/11/09 10:40:48;;;;;;;20.25;3.35;;;11.80;99.90;;;;;;4887627;28;88063;-74
2023/11/09 10:43:14;;;;;;;15.82;3.13;;;11.80;99.90;;;;;;4886880;28;88237;-74
2023/11/09 10:45:45;;;;;;;14.68;3.00;;;12.00;99.90;;;;;;4888364;28;88196;-74
2023/11/09 10:48:18;;;;;;;12.02;2.50;;;12.10;99.90;;;;;;4893707;28;88764;-74
2023/11/09 10:50:49;;;;;;;20.08;3.40;;;12.30;99.90;;;;;;4880390;28;91689;-74
2023/11/09 10:53:19;;;;;;;13.45;2.70;;;12.40;99.90;;;;;;4883926;28;87806;-74
2023/11/09 10:55:53;;;;;;;19.88;3.30;;;12.50;99.90;;;;;;4884446;28;90329;-74
2023/11/09 10:58:21;;;;;;;17.92;4.25;;;12.60;99.90;;;;;;4886461;28;92788;-75
2023/11/09 11:01:11;;;;;;;15.15;2.80;;;12.60;99.90;;;;;;4882800;28;89446;-74
2023/11/09 11:03:44;;;;;;;48.30;6.00;;;12.50;99.90;;;;;;4888666;28;87965;-75
2023/11/09 11:06:18;;;;;;;17.70;2.70;;;12.50;99.90;;;;;;4883322;28;90483;-74
2023/11/09 11:08:49;;;;;;;21.55;2.70;;;12.50;99.90;;;;;;4889013;28;91618;-74
2023/11/09 11:11:40;;;;;;;13.40;2.28;;;12.60;99.90;;;;;;4889947;28;91020;-74
2023/11/09 11:14:09;;;;;;;21.30;2.85;;;12.60;99.90;;;;;;4880988;28;88120;-74
2023/11/09 11:16:56;;;;;;;12.73;2.17;;;12.70;99.90;;;;;;4891752;28;89820;-74
2023/11/09 11:19:51;;;;;;;19.50;3.47;;;12.70;99.90;;;;;;4891089;28;91877;-75
2023/11/09 11:22:32;;;;;;;11.32;2.03;;;12.70;99.90;;;;;;4883958;28;90728;-74
2023/11/09 11:25:40;;;;;;;13.95;2.38;;;12.60;99.90;;;;;;4884201;28;89442;-76
2023/11/09 11:28:10;;;;;;;14.85;3.03;;;12.60;99.90;;;;;;4878798;28;87951;-74
2023/11/09 11:30:38;;;;;;;26.95;3.80;;;12.50;99.90;;;;;;4882719;28;88435;-75
2023/11/09 11:33:14;;;;;;;14.30;2.50;;;12.50;99.90;;;;;;4879838;28;88033;-75
2023/11/09 11:35:48;;;;;;;23.30;2.85;;;12.50;99.90;;;;;;4877542;28;87848;-75
2023/11/09 11:41:51;;;;;;;15.35;2.65;;;12.60;99.90;;;;;;4867935;28;94392;-74
2023/11/09 11:44:17;;;;;;;11.18;2.50;;;12.60;99.90;;;;;;4882461;28;91050;-74
2023/11/09 11:46:43;;;;;;;16.95;2.72;;;12.60;99.90;;;;;;4878949;28;88275;-74
2023/11/09 11:49:22;;;;;;;17.98;2.60;;;12.60;99.90;;;;;;4869986;28;87801;-74
2023/11/09 11:51:48;;;;;;;16.30;2.22;;;12.60;99.90;;;;;;4872071;28;90508;-74
2023/11/09 11:54:15;;;;;;;19.75;2.63;;;12.60;99.90;;;;;;4882594;28;93662;-74
2023/11/09 11:56:52;;;;;;;19.08;2.40;;;12.70;99.90;;;;;;4882429;28;88589;-76
2023/11/09 11:59:43;;;;;;;9.90;1.52;;;12.70;99.90;;;;;;4895799;28;90669;-75
2023/11/09 12:02:12;;;;;;;20.23;2.60;;;12.80;99.90;;;;;;4881188;28;97043;-74
2023/11/09 12:04:54;;;;;;;46.83;3.90;;;12.90;99.90;;;;;;4881485;28;88408;-75
2023/11/09 12:07:21;;;;;;;18.63;2.85;;;13.10;99.90;;;;;;4883537;28;88273;-74
2023/11/09 12:09:48;;;;;;;15.07;2.85;;;13.20;99.90;;;;;;4886343;28;87392;-75
2023/11/09 12:12:14;;;;;;;15.02;2.05;;;13.20;99.90;;;;;;4876836;28;92271;-74
2023/11/09 12:14:48;;;;;;;13.45;2.22;;;13.30;99.90;;;;;;4877287;28;90412;-74
2023/11/09 12:17:14;;;;;;;16.70;2.30;;;13.40;99.90;;;;;;4874399;28;89376;-75
2023/11/09 12:20:04;;;;;;;16.75;2.60;;;13.40;99.90;;;;;;4884599;28;88737;-75
2023/11/09 12:22:33;;;;;;;16.05;2.15;;;13.40;99.90;;;;;;4885011;28;90649;-76
2023/11/09 12:25:02;;;;;;;12.23;2.25;;;13.50;99.90;;;;;;4874786;28;89056;-74
2023/11/09 12:27:29;;;;;;;18.67;2.63;;;13.60;99.90;;;;;;4881643;28;87744;-74
2023/11/09 12:29:54;;;;;;;14.20;2.45;;;13.60;99.90;;;;;;4884351;28;88389;-75
2023/11/09 12:32:20;;;;;;;15.60;2.25;;;13.70;99.90;;;;;;4881748;28;88311;-74
2023/11/09 12:34:46;;;;;;;17.70;2.08;;;13.70;99.90;;;;;;4879612;28;89050;-75
2023/11/09 12:37:13;;;;;;;17.80;2.95;;;13.80;99.90;;;;;;4886159;28;87854;-74
2023/11/09 12:39:40;;;;;;;18.05;2.53;;;13.80;99.90;;;;;;4885399;28;88537;-73
2023/11/09 12:42:06;;;;;;;40.50;4.18;;;13.80;99.90;;;;;;4886882;28;88848;-74
2023/11/09 12:44:42;;;;;;;16.65;2.17;;;13.80;99.90;;;;;;4889808;28;92135;-74
2023/11/09 12:47:13;;;;;;;15.77;2.25;;;13.70;99.90;;;;;;4888531;28;89724;-74
2023/11/09 12:49:41;;;;;;;18.65;2.20;;;13.60;99.90;;;;;;4881958;28;90873;-73
2023/11/09 12:52:27;;;;;;;18.58;2.53;;;13.60;99.90;;;;;;4885909;28;88722;-74
2023/11/09 12:54:53;;;;;;;17.77;2.72;;;13.60;99.90;;;;;;4888747;28;90017;-74
2023/11/09 12:57:22;;;;;;;17.05;2.97;;;13.50;99.90;;;;;;4886731;28;94327;-74
2023/11/09 12:59:51;;;;;;;14.50;1.85;;;13.40;99.90;;;;;;4887507;28;86965;-75
2023/11/09 13:02:32;;;;;;;13.48;2.10;;;13.40;99.90;;;;;;4889049;28;91875;-75
2023/11/09 13:05:18;;;;;;;15.00;2.08;;;13.40;99.90;;;;;;4892736;28;91869;-74